Time;durP1;ratioP1;P1;durP2;ratioP2;P2;SDS_P1;SDS_P2;PMS_P1;PMS_P2;Temp;Humidity;BMP_temperature;BMP_pressure;BME280_temperature;BME280_humidity;BME280_pressure;Samples;Min_cycle;Max_cycle;Signal;HPM_P1;HPM_P2
2022/07/01 00:00:25;;;;;;;17.35;12.35;;;;;;;;;;5024576;28;20037;-63
2022/07/01 00:02:51;;;;;;;16.17;11.00;;;;;;;;;;5032935;28;20033;-63
2022/07/01 00:05:16;;;;;;;17.80;12.05;;;;;;;;;;5024929;28;20034;-63
2022/07/01 00:07:42;;;;;;;15.68;11.18;;;;;;;;;;5033206;28;20037;-63
2022/07/01 00:10:08;;;;;;;16.45;11.32;;;;;;;;;;5024647;28;20386;-63
2022/07/01 00:12:33;;;;;;;16.13;10.85;;;;;;;;;;5025902;28;20036;-63
2022/07/01 00:14:59;;;;;;;12.38;9.60;;;;;;;;;;5012488;28;20061;-64
2022/07/01 00:17:24;;;;;;;15.93;9.75;;;;;;;;;;5013755;28;20025;-63
2022/07/01 00:19:50;;;;;;;12.98;9.13;;;;;;;;;;5012855;28;20060;-63
2022/07/01 00:22:16;;;;;;;13.55;9.05;;;;;;;;;;5018332;28;20052;-63
2022/07/01 00:24:41;;;;;;;12.43;9.20;;;;;;;;;;5031111;28;20059;-62
2022/07/01 00:27:07;;;;;;;15.02;9.30;;;;;;;;;;5027056;28;20390;-63
2022/07/01 00:29:35;;;;;;;12.27;8.88;;;;;;;;;;5027834;28;20033;-63
2022/07/01 00:32:01;;;;;;;14.38;9.20;;;;;;;;;;5030861;28;20069;-63
2022/07/01 00:34:26;;;;;;;11.73;8.90;;;;;;;;;;5027129;28;20463;-62
2022/07/01 00:36:52;;;;;;;15.00;8.52;;;;;;;;;;5031129;28;20026;-62
2022/07/01 00:39:17;;;;;;;12.00;8.75;;;;;;;;;;5031293;28;20069;-63
2022/07/01 00:41:43;;;;;;;11.95;9.07;;;;;;;;;;5016304;28;20429;-63
2022/07/01 00:44:20;;;;;;;11.52;9.07;;;;;;;;;;5031106;28;20029;-63
2022/07/01 00:46:49;;;;;;;11.85;9.52;;;;;;;;;;5011622;28;20048;-63
2022/07/01 00:49:15;;;;;;;12.27;9.18;;;;;;;;;;5007552;28;20106;-63
2022/07/01 00:51:40;;;;;;;13.43;9.48;;;;;;;;;;5005635;28;20378;-64
2022/07/01 00:54:06;;;;;;;15.52;9.63;;;;;;;;;;4993569;28;20034;-64
2022/07/01 00:56:31;;;;;;;13.32;9.73;;;;;;;;;;4994791;28;20064;-63
2022/07/01 00:58:57;;;;;;;13.52;9.68;;;;;;;;;;4992418;28;20029;-64
2022/07/01 01:01:22;;;;;;;13.95;9.60;;;;;;;;;;4991947;28;20034;-64
2022/07/01 01:03:48;;;;;;;12.93;9.60;;;;;;;;;;5009573;28;20391;-64
2022/07/01 01:06:15;;;;;;;14.90;10.13;;;;;;;;;;5009128;28;20115;-64
2022/07/01 01:08:40;;;;;;;15.27;10.02;;;;;;;;;;4992761;28;20505;-63
2022/07/01 01:11:06;;;;;;;14.40;10.13;;;;;;;;;;5002331;28;20038;-64
2022/07/01 01:13:31;;;;;;;17.10;10.38;;;;;;;;;;5010491;28;20045;-64
2022/07/01 01:15:57;;;;;;;16.92;11.07;;;;;;;;;;5000046;28;20061;-64
2022/07/01 01:18:22;;;;;;;16.15;11.15;;;;;;;;;;5001319;28;20064;-64
2022/07/01 01:20:47;;;;;;;18.40;11.15;;;;;;;;;;5010713;28;20072;-64
2022/07/01 01:23:13;;;;;;;19.92;12.60;;;;;;;;;;5009588;28;20057;-64
2022/07/01 01:25:39;;;;;;;19.35;12.68;;;;;;;;;;5010141;28;20386;-64
2022/07/01 01:28:04;;;;;;;21.25;13.00;;;;;;;;;;5004528;28;20034;-65
2022/07/01 01:30:30;;;;;;;20.27;12.07;;;;;;;;;;5008803;28;20041;-65
2022/07/01 01:32:55;;;;;;;21.08;12.35;;;;;;;;;;5002103;28;20402;-65
2022/07/01 01:35:22;;;;;;;23.52;13.77;;;;;;;;;;5003148;28;20493;-65
2022/07/01 01:37:48;;;;;;;29.52;14.50;;;;;;;;;;5009884;28;20041;-65
2022/07/01 01:40:14;;;;;;;23.67;13.93;;;;;;;;;;5007493;28;20060;-65
2022/07/01 01:42:41;;;;;;;27.02;14.80;;;;;;;;;;4992672;28;20033;-65
2022/07/01 01:45:07;;;;;;;26.42;14.60;;;;;;;;;;5011256;28;20034;-65
2022/07/01 01:47:32;;;;;;;24.02;14.57;;;;;;;;;;5006531;28;20436;-65
2022/07/01 01:49:58;;;;;;;26.70;15.18;;;;;;;;;;5028549;28;20496;-66
2022/07/01 01:52:23;;;;;;;26.45;15.98;;;;;;;;;;5024857;28;20060;-65
2022/07/01 01:54:49;;;;;;;28.95;16.20;;;;;;;;;;5031553;28;20037;-65
2022/07/01 01:57:16;;;;;;;26.67;16.20;;;;;;;;;;5028574;28;20040;-64
2022/07/01 01:59:41;;;;;;;30.85;17.60;;;;;;;;;;5031600;28;20461;-64
2022/07/01 02:02:06;;;;;;;31.38;17.42;;;;;;;;;;5016778;28;20036;-65
2022/07/01 02:04:32;;;;;;;35.67;19.05;;;;;;;;;;5015611;28;20101;-64
2022/07/01 02:06:58;;;;;;;32.90;18.77;;;;;;;;;;5014772;28;20034;-65
2022/07/01 02:09:23;;;;;;;31.13;18.42;;;;;;;;;;5033923;28;20025;-64
2022/07/01 02:11:53;;;;;;;33.70;18.98;;;;;;;;;;5034362;28;20371;-64
2022/07/01 02:14:19;;;;;;;34.25;19.92;;;;;;;;;;5014573;28;20175;-65
2022/07/01 02:16:44;;;;;;;36.67;19.65;;;;;;;;;;5034166;28;20487;-64
2022/07/01 02:19:09;;;;;;;35.30;19.33;;;;;;;;;;5032270;28;20037;-64
2022/07/01 02:21:35;;;;;;;36.72;21.40;;;;;;;;;;5033427;28;20056;-64
2022/07/01 02:24:00;;;;;;;38.90;21.17;;;;;;;;;;5033250;28;20037;-67
2022/07/01 02:26:26;;;;;;;38.70;20.50;;;;;;;;;;5023843;28;20034;-63
2022/07/01 02:28:51;;;;;;;39.78;21.27;;;;;;;;;;5019888;28;20408;-64
2022/07/01 02:31:16;;;;;;;38.85;21.15;;;;;;;;;;5029519;28;20108;-64
2022/07/01 02:33:42;;;;;;;32.60;18.90;;;;;;;;;;5030228;28;20485;-65
2022/07/01 02:36:07;;;;;;;33.85;19.88;;;;;;;;;;5017072;28;20109;-63
2022/07/01 02:38:33;;;;;;;34.58;20.15;;;;;;;;;;5018100;28;20130;-63
2022/07/01 02:40:58;;;;;;;30.48;18.63;;;;;;;;;;5035052;28;20117;-62
2022/07/01 02:43:24;;;;;;;37.15;19.90;;;;;;;;;;5030418;28;20065;-62
2022/07/01 02:45:49;;;;;;;31.33;18.45;;;;;;;;;;5034784;28;20029;-62
2022/07/01 02:48:15;;;;;;;32.58;18.50;;;;;;;;;;5021057;28;20069;-62
2022/07/01 02:50:40;;;;;;;29.65;18.52;;;;;;;;;;5029117;28;20474;-62
2022/07/01 02:53:05;;;;;;;30.45;18.00;;;;;;;;;;5024828;28;20041;-63
2022/07/01 02:55:31;;;;;;;25.38;15.70;;;;;;;;;;5033895;28;20029;-63
2022/07/01 02:57:57;;;;;;;24.70;15.35;;;;;;;;;;5031178;28;20037;-63
2022/07/01 03:00:23;;;;;;;25.73;15.57;;;;;;;;;;5030853;28;20029;-63
2022/07/01 03:02:49;;;;;;;26.05;15.55;;;;;;;;;;5031587;28;20108;-63
2022/07/01 03:05:15;;;;;;;24.42;15.73;;;;;;;;;;5031090;28;20472;-63
2022/07/01 03:07:41;;;;;;;26.60;15.70;;;;;;;;;;5014196;28;20052;-63
2022/07/01 03:10:08;;;;;;;23.50;14.52;;;;;;;;;;5026243;28;20026;-63
2022/07/01 03:12:38;;;;;;;22.63;14.45;;;;;;;;;;5031676;28;20041;-63
2022/07/01 03:15:09;;;;;;;18.77;11.70;;;;;;;;;;5033368;28;20033;-64
2022/07/01 03:17:36;;;;;;;16.48;10.90;;;;;;;;;;5032329;28;20036;-63
2022/07/01 03:20:03;;;;;;;18.90;11.27;;;;;;;;;;5016403;28;20055;-63
2022/07/01 03:22:31;;;;;;;18.40;10.50;;;;;;;;;;5027297;28;20143;-63
2022/07/01 03:24:57;;;;;;;15.20;10.02;;;;;;;;;;5033161;28;20075;-63
2022/07/01 03:27:23;;;;;;;16.98;10.88;;;;;;;;;;5028499;28;20056;-64
2022/07/01 03:29:48;;;;;;;19.65;10.82;;;;;;;;;;5025345;28;20038;-63
2022/07/01 03:32:15;;;;;;;15.98;9.80;;;;;;;;;;5030037;28;20351;-64
2022/07/01 03:34:49;;;;;;;15.88;9.75;;;;;;;;;;5031276;28;20037;-63
2022/07/01 03:37:16;;;;;;;16.70;10.13;;;;;;;;;;5030212;28;20129;-64
2022/07/01 03:39:42;;;;;;;14.65;9.90;;;;;;;;;;5013997;28;20030;-64
2022/07/01 03:42:08;;;;;;;18.40;9.77;;;;;;;;;;5013609;28;20073;-64
2022/07/01 03:44:35;;;;;;;16.98;9.43;;;;;;;;;;5017520;28;20236;-63
2022/07/01 03:47:01;;;;;;;16.83;9.63;;;;;;;;;;5030360;28;20478;-64
2022/07/01 03:49:26;;;;;;;16.33;9.73;;;;;;;;;;5028269;28;20037;-63
2022/07/01 03:51:52;;;;;;;14.98;8.65;;;;;;;;;;5032525;28;20447;-63
2022/07/01 03:54:30;;;;;;;18.23;9.68;;;;;;;;;;5025365;28;20040;-63
2022/07/01 03:56:56;;;;;;;16.33;9.93;;;;;;;;;;5032518;28;20029;-63
2022/07/01 03:59:22;;;;;;;14.82;9.77;;;;;;;;;;5030123;28;20489;-63
2022/07/01 04:01:47;;;;;;;17.83;9.95;;;;;;;;;;5026731;28;20033;-64
2022/07/01 04:04:12;;;;;;;17.52;9.73;;;;;;;;;;5015335;28;20034;-64
2022/07/01 04:06:38;;;;;;;16.63;9.68;;;;;;;;;;5028977;28;20112;-64
2022/07/01 04:09:04;;;;;;;15.60;9.93;;;;;;;;;;5027947;28;20377;-64
2022/07/01 04:11:29;;;;;;;18.13;10.00;;;;;;;;;;5015895;28;20033;-63
2022/07/01 04:13:55;;;;;;;17.48;9.82;;;;;;;;;;5029546;28;20505;-63
2022/07/01 04:16:21;;;;;;;15.75;9.73;;;;;;;;;;5028580;28;20033;-64
2022/07/01 04:18:47;;;;;;;16.60;10.45;;;;;;;;;;5027828;28;20378;-63
2022/07/01 04:23:59;;;;;;;18.25;10.35;;;;;;;;;;5014764;28;20111;-63
2022/07/01 04:26:25;;;;;;;16.42;10.85;;;;;;;;;;5027270;28;20041;-63
2022/07/01 04:28:54;;;;;;;17.92;10.77;;;;;;;;;;5016031;28;20458;-63
2022/07/01 04:31:20;;;;;;;16.98;10.73;;;;;;;;;;5021729;28;20037;-64
2022/07/01 04:33:49;;;;;;;16.80;10.88;;;;;;;;;;5021331;28;20036;-64
2022/07/01 04:36:14;;;;;;;17.90;10.77;;;;;;;;;;5020537;28;20068;-64
2022/07/01 04:38:40;;;;;;;16.77;11.05;;;;;;;;;;5028200;28;21659;-64
2022/07/01 04:43:50;;;;;;;15.25;10.43;;;;;;;;;;5012722;28;20302;-63
2022/07/01 04:46:15;;;;;;;15.77;10.80;;;;;;;;;;5003284;28;20034;-63
2022/07/01 04:48:41;;;;;;;16.42;11.07;;;;;;;;;;4975906;28;1126405;-64
2022/07/01 04:51:07;;;;;;;18.88;11.63;;;;;;;;;;5032697;28;20041;-63
2022/07/01 04:53:32;;;;;;;18.88;11.80;;;;;;;;;;5029587;28;20650;-64
2022/07/01 04:55:58;;;;;;;17.63;11.63;;;;;;;;;;5016435;28;20434;-63
2022/07/01 04:58:23;;;;;;;16.67;11.63;;;;;;;;;;5011642;28;20037;-64
2022/07/01 05:00:49;;;;;;;16.75;11.82;;;;;;;;;;5014640;28;20415;-63
2022/07/01 05:03:14;;;;;;;19.02;11.45;;;;;;;;;;5031095;28;20458;-64
2022/07/01 05:05:40;;;;;;;18.48;11.27;;;;;;;;;;5031867;28;20321;-64
2022/07/01 05:08:05;;;;;;;16.92;11.73;;;;;;;;;;5032294;28;20033;-64
2022/07/01 05:10:31;;;;;;;16.98;11.77;;;;;;;;;;5026675;28;20192;-63
2022/07/01 05:12:56;;;;;;;22.05;12.05;;;;;;;;;;5026156;28;20167;-63
2022/07/01 05:15:21;;;;;;;17.55;11.90;;;;;;;;;;5030565;28;20482;-63
2022/07/01 05:23:15;;;;;;;15.48;11.43;;;;;;;;;;5024322;28;20141;-62
2022/07/01 05:25:40;;;;;;;17.67;12.05;;;;;;;;;;5015074;28;20518;-66
2022/07/01 05:28:05;;;;;;;18.98;11.85;;;;;;;;;;5025138;28;20029;-64
2022/07/01 05:30:31;;;;;;;17.75;11.93;;;;;;;;;;5029338;28;20486;-65
2022/07/01 05:32:56;;;;;;;20.45;12.65;;;;;;;;;;5025199;28;20042;-64
2022/07/01 05:35:22;;;;;;;17.80;12.50;;;;;;;;;;5023789;28;20033;-64
2022/07/01 05:37:47;;;;;;;18.70;12.07;;;;;;;;;;5026776;28;20037;-65
2022/07/01 05:40:12;;;;;;;17.60;11.18;;;;;;;;;;5014145;28;20053;-65
2022/07/01 05:42:38;;;;;;;19.08;11.57;;;;;;;;;;5011120;28;20030;-63
2022/07/01 05:45:04;;;;;;;16.50;11.30;;;;;;;;;;5012499;28;20449;-65
2022/07/01 05:47:29;;;;;;;17.00;11.50;;;;;;;;;;5030441;28;20050;-66
2022/07/01 05:49:55;;;;;;;16.65;11.13;;;;;;;;;;5029772;28;20461;-68
2022/07/01 05:52:20;;;;;;;18.95;11.75;;;;;;;;;;5026558;28;20053;-66
2022/07/01 05:54:45;;;;;;;16.00;11.05;;;;;;;;;;5030002;28;20033;-67
2022/07/01 05:57:11;;;;;;;16.48;11.85;;;;;;;;;;5028808;28;20117;-65
2022/07/01 05:59:36;;;;;;;16.52;11.18;;;;;;;;;;5011155;28;20040;-66
2022/07/01 06:02:02;;;;;;;18.27;11.57;;;;;;;;;;5011720;28;20034;-65
2022/07/01 06:04:28;;;;;;;16.95;11.88;;;;;;;;;;5008137;28;20037;-66
2022/07/01 06:06:53;;;;;;;15.18;11.20;;;;;;;;;;5030505;28;20029;-64
2022/07/01 06:09:19;;;;;;;15.80;11.25;;;;;;;;;;5026683;28;20034;-66
2022/07/01 06:11:44;;;;;;;18.33;11.05;;;;;;;;;;5020574;28;20040;-66
2022/07/01 06:14:10;;;;;;;19.08;10.93;;;;;;;;;;5026838;28;20038;-67
2022/07/01 06:16:35;;;;;;;17.92;10.45;;;;;;;;;;5011829;28;20173;-66
2022/07/01 06:19:01;;;;;;;14.90;10.50;;;;;;;;;;5031033;28;20105;-67
2022/07/01 06:21:26;;;;;;;16.52;9.77;;;;;;;;;;5028927;28;20033;-64
2022/07/01 06:23:52;;;;;;;16.13;9.75;;;;;;;;;;5027416;28;20366;-66
2022/07/01 06:26:17;;;;;;;17.20;10.18;;;;;;;;;;5028835;28;20030;-65
2022/07/01 06:28:42;;;;;;;16.00;10.30;;;;;;;;;;5027097;28;20459;-65
2022/07/01 06:31:08;;;;;;;15.23;9.95;;;;;;;;;;5020198;28;20026;-66
2022/07/01 06:33:33;;;;;;;17.13;11.52;;;;;;;;;;5029353;28;20076;-65
2022/07/01 06:35:59;;;;;;;16.83;11.82;;;;;;;;;;5029733;28;20029;-66
2022/07/01 06:38:24;;;;;;;18.60;12.60;;;;;;;;;;5029280;28;20065;-66
2022/07/01 06:43:35;;;;;;;20.58;12.98;;;;;;;;;;5014040;28;20391;-66
2022/07/01 06:46:01;;;;;;;20.90;13.35;;;;;;;;;;5013057;28;20030;-65
2022/07/01 06:48:26;;;;;;;17.00;12.95;;;;;;;;;;5032370;28;20045;-65
2022/07/01 06:50:51;;;;;;;19.40;12.88;;;;;;;;;;5025631;28;20104;-66
2022/07/01 06:53:17;;;;;;;18.58;13.60;;;;;;;;;;5033201;28;20044;-64
2022/07/01 06:55:42;;;;;;;21.30;14.15;;;;;;;;;;5032960;28;20112;-66
2022/07/01 06:58:09;;;;;;;20.13;14.32;;;;;;;;;;5034525;28;20138;-69
2022/07/01 07:00:35;;;;;;;19.05;14.50;;;;;;;;;;5023902;28;20865;-64
2022/07/01 07:03:01;;;;;;;20.92;13.80;;;;;;;;;;5012058;28;20041;-64
2022/07/01 07:05:26;;;;;;;16.20;12.20;;;;;;;;;;5022982;28;20042;-65
2022/07/01 07:07:52;;;;;;;16.08;12.73;;;;;;;;;;5034513;28;20029;-66
2022/07/01 07:10:17;;;;;;;15.40;11.43;;;;;;;;;;5011927;28;20394;-63
2022/07/01 07:12:42;;;;;;;17.35;11.88;;;;;;;;;;5030449;28;20486;-63
2022/07/01 07:15:08;;;;;;;15.40;11.48;;;;;;;;;;5031479;28;20029;-64
2022/07/01 07:17:33;;;;;;;16.40;11.15;;;;;;;;;;5032130;28;20641;-62
2022/07/01 07:19:59;;;;;;;14.20;10.73;;;;;;;;;;5026332;28;20025;-64
2022/07/01 07:22:24;;;;;;;17.63;10.57;;;;;;;;;;5027548;28;20451;-64
2022/07/01 07:24:50;;;;;;;14.80;10.30;;;;;;;;;;5030018;28;20029;-64
2022/07/01 07:27:15;;;;;;;12.90;10.52;;;;;;;;;;5032771;28;20037;-64
2022/07/01 07:29:41;;;;;;;13.73;10.18;;;;;;;;;;5028851;28;20079;-64
2022/07/01 07:32:07;;;;;;;14.48;9.80;;;;;;;;;;5028694;28;20045;-63
2022/07/01 07:34:34;;;;;;;11.80;8.95;;;;;;;;;;5015993;28;20060;-63
2022/07/01 07:37:00;;;;;;;12.18;9.20;;;;;;;;;;5014107;28;20080;-63
2022/07/01 07:39:25;;;;;;;12.48;9.85;;;;;;;;;;5030186;28;20061;-63
2022/07/01 07:41:51;;;;;;;17.40;9.77;;;;;;;;;;5029905;28;20041;-62
2022/07/01 07:44:16;;;;;;;15.52;9.60;;;;;;;;;;5032534;28;20074;-64
2022/07/01 07:46:42;;;;;;;12.77;9.75;;;;;;;;;;5021022;28;20108;-63
2022/07/01 07:49:07;;;;;;;13.82;9.43;;;;;;;;;;5016699;28;20088;-63
2022/07/01 07:51:33;;;;;;;12.50;9.20;;;;;;;;;;5017569;28;20640;-64
2022/07/01 07:54:00;;;;;;;14.90;10.90;;;;;;;;;;5029262;28;20386;-63
2022/07/01 07:56:25;;;;;;;16.88;11.43;;;;;;;;;;5030058;28;20480;-63
2022/07/01 07:58:51;;;;;;;14.73;11.98;;;;;;;;;;5019352;28;20026;-64
2022/07/01 08:01:16;;;;;;;12.98;11.20;;;;;;;;;;5014690;28;20049;-64
2022/07/01 08:03:41;;;;;;;13.60;11.50;;;;;;;;;;5026127;28;20147;-63
2022/07/01 08:06:07;;;;;;;14.10;11.48;;;;;;;;;;5013984;28;20034;-63
2022/07/01 08:08:32;;;;;;;16.80;11.15;;;;;;;;;;5031711;28;20478;-63
2022/07/01 08:10:59;;;;;;;13.90;10.43;;;;;;;;;;5028477;28;20044;-63
2022/07/01 08:13:24;;;;;;;13.73;10.32;;;;;;;;;;5017252;28;20045;-62
2022/07/01 08:15:50;;;;;;;12.30;10.18;;;;;;;;;;5014391;28;20026;-64
2022/07/01 08:18:15;;;;;;;14.60;10.93;;;;;;;;;;5030566;28;20038;-65
2022/07/01 08:20:40;;;;;;;12.48;10.55;;;;;;;;;;5027736;28;20092;-63
2022/07/01 08:23:06;;;;;;;14.63;10.00;;;;;;;;;;5024907;28;20031;-62
2022/07/01 08:25:31;;;;;;;13.52;10.57;;;;;;;;;;5024768;28;20360;-63
2022/07/01 08:27:57;;;;;;;11.25;9.30;;;;;;;;;;5023773;28;20462;-62
2022/07/01 08:30:22;;;;;;;13.25;10.60;;;;;;;;;;5031313;28;20041;-63
2022/07/01 08:32:47;;;;;;;13.43;10.15;;;;;;;;;;5019455;28;20096;-64
2022/07/01 08:35:13;;;;;;;14.40;10.05;;;;;;;;;;5028205;28;20026;-64
2022/07/01 08:37:38;;;;;;;13.10;9.93;;;;;;;;;;5013249;28;20030;-64
2022/07/01 08:40:04;;;;;;;17.92;9.98;;;;;;;;;;5032501;28;20431;-63
2022/07/01 08:42:30;;;;;;;14.80;9.57;;;;;;;;;;5019143;28;20037;-63
2022/07/01 08:44:55;;;;;;;12.80;9.50;;;;;;;;;;5025007;28;20037;-62
2022/07/01 08:47:20;;;;;;;12.15;9.68;;;;;;;;;;5013058;28;20100;-62
2022/07/01 08:49:46;;;;;;;14.57;10.13;;;;;;;;;;5031728;28;20030;-62
2022/07/01 08:52:11;;;;;;;11.77;9.80;;;;;;;;;;5024206;28;20030;-63
2022/07/01 08:54:38;;;;;;;13.40;10.00;;;;;;;;;;5012343;28;20394;-63
2022/07/01 08:57:04;;;;;;;14.90;8.80;;;;;;;;;;5028223;28;20052;-63
2022/07/01 08:59:30;;;;;;;13.20;8.77;;;;;;;;;;5030268;28;20466;-62
2022/07/01 09:01:58;;;;;;;10.25;7.65;;;;;;;;;;5028861;28;20038;-62
2022/07/01 09:04:24;;;;;;;10.30;7.78;;;;;;;;;;5021855;28;20036;-62
2022/07/01 09:06:50;;;;;;;9.55;6.53;;;;;;;;;;5031058;28;20080;-63
2022/07/01 09:09:20;;;;;;;7.70;6.20;;;;;;;;;;5029504;28;20033;-63
2022/07/01 09:11:54;;;;;;;8.63;6.33;;;;;;;;;;5032228;28;20029;-63
2022/07/01 09:14:21;;;;;;;9.27;5.95;;;;;;;;;;5028195;28;20032;-64
2022/07/01 09:17:03;;;;;;;12.48;6.00;;;;;;;;;;5031815;28;20437;-63
2022/07/01 09:19:32;;;;;;;8.95;5.75;;;;;;;;;;5017403;28;20045;-63
2022/07/01 09:22:00;;;;;;;11.07;5.10;;;;;;;;;;5014582;28;20036;-62
2022/07/01 09:24:33;;;;;;;6.25;4.78;;;;;;;;;;5020858;28;20064;-63
2022/07/01 09:27:08;;;;;;;6.28;4.32;;;;;;;;;;5013680;28;20037;-63
2022/07/01 09:29:36;;;;;;;6.10;4.38;;;;;;;;;;5031158;28;20592;-63
2022/07/01 09:32:05;;;;;;;6.68;4.38;;;;;;;;;;5028797;28;20449;-62
2022/07/01 09:34:34;;;;;;;8.07;4.70;;;;;;;;;;5018964;28;20478;-63
2022/07/01 09:37:01;;;;;;;5.30;4.30;;;;;;;;;;5013116;28;20124;-62
2022/07/01 09:39:26;;;;;;;6.78;4.32;;;;;;;;;;5030975;28;20037;-63
2022/07/01 09:41:56;;;;;;;8.40;4.35;;;;;;;;;;5030161;28;20119;-63
2022/07/01 09:44:22;;;;;;;7.93;4.43;;;;;;;;;;5026547;28;20033;-61
2022/07/01 09:46:57;;;;;;;4.80;3.85;;;;;;;;;;5026695;28;20322;-63
2022/07/01 09:49:24;;;;;;;8.02;4.15;;;;;;;;;;5029240;28;20750;-63
2022/07/01 09:51:51;;;;;;;6.07;3.80;;;;;;;;;;5030281;28;20022;-63
2022/07/01 09:54:17;;;;;;;6.28;3.50;;;;;;;;;;5030746;28;20454;-63
2022/07/01 09:56:42;;;;;;;11.25;3.90;;;;;;;;;;5031115;28;20052;-63
2022/07/01 09:59:08;;;;;;;10.48;4.00;;;;;;;;;;5030129;28;20029;-62
2022/07/01 10:01:34;;;;;;;12.00;3.88;;;;;;;;;;5030607;28;20588;-63
2022/07/01 10:04:01;;;;;;;7.03;3.75;;;;;;;;;;5030777;28;20117;-63
2022/07/01 10:06:48;;;;;;;5.68;3.20;;;;;;;;;;5030546;28;20029;-63
2022/07/01 10:09:25;;;;;;;3.85;2.58;;;;;;;;;;5011313;28;20026;-63
2022/07/01 10:12:11;;;;;;;4.95;2.80;;;;;;;;;;5013179;28;20165;-63
2022/07/01 10:14:39;;;;;;;7.15;2.78;;;;;;;;;;5029423;28;20034;-62
2022/07/01 10:17:06;;;;;;;5.53;2.70;;;;;;;;;;5025273;28;20026;-62
2022/07/01 10:19:33;;;;;;;6.43;3.33;;;;;;;;;;5025900;28;20076;-62
2022/07/01 10:22:28;;;;;;;5.97;3.25;;;;;;;;;;5028382;28;20033;-62
2022/07/01 10:24:55;;;;;;;5.75;2.70;;;;;;;;;;5031657;28;20095;-63
2022/07/01 10:27:24;;;;;;;3.85;2.63;;;;;;;;;;5032961;28;20068;-63
2022/07/01 10:30:13;;;;;;;3.60;2.58;;;;;;;;;;5033534;28;20029;-63
2022/07/01 10:32:59;;;;;;;3.83;2.30;;;;;;;;;;5032220;28;20034;-61
2022/07/01 10:35:24;;;;;;;4.30;2.58;;;;;;;;;;5033177;28;20523;-62
2022/07/01 10:38:00;;;;;;;4.20;2.60;;;;;;;;;;5032576;28;20034;-62
2022/07/01 10:40:46;;;;;;;3.80;2.47;;;;;;;;;;5032839;28;20025;-62
2022/07/01 10:43:16;;;;;;;5.45;2.22;;;;;;;;;;5014691;28;20489;-61
2022/07/01 10:45:45;;;;;;;5.13;2.60;;;;;;;;;;5031857;28;20052;-61
2022/07/01 10:48:22;;;;;;;4.53;2.60;;;;;;;;;;5033692;28;20506;-61
2022/07/01 10:50:48;;;;;;;4.35;2.50;;;;;;;;;;5034494;28;20061;-62
2022/07/01 10:53:14;;;;;;;4.13;2.20;;;;;;;;;;5031233;28;20038;-61
2022/07/01 10:56:06;;;;;;;4.65;2.42;;;;;;;;;;5024853;28;20060;-62
2022/07/01 10:58:36;;;;;;;4.40;2.30;;;;;;;;;;5023078;28;20276;-61
2022/07/01 11:01:03;;;;;;;4.18;2.10;;;;;;;;;;5033537;28;20124;-62
2022/07/01 11:03:39;;;;;;;4.50;2.53;;;;;;;;;;5031855;28;20034;-64
2022/07/01 11:06:05;;;;;;;5.03;2.35;;;;;;;;;;5034543;28;20056;-68
2022/07/01 11:08:30;;;;;;;3.60;2.13;;;;;;;;;;5022264;28;20036;-68
2022/07/01 11:10:58;;;;;;;4.07;2.10;;;;;;;;;;5033925;28;20038;-65
2022/07/01 11:13:26;;;;;;;5.30;1.90;;;;;;;;;;5021707;28;20037;-65
2022/07/01 11:15:51;;;;;;;5.25;1.90;;;;;;;;;;5001599;28;20038;-67
2022/07/01 11:18:19;;;;;;;3.83;1.80;;;;;;;;;;5023901;28;20347;-64
2022/07/01 11:20:44;;;;;;;4.93;2.00;;;;;;;;;;5014824;28;20487;-65
2022/07/01 11:23:10;;;;;;;5.55;2.20;;;;;;;;;;5022432;28;20160;-65
2022/07/01 11:25:35;;;;;;;4.75;2.22;;;;;;;;;;5032734;28;20398;-65
2022/07/01 11:28:01;;;;;;;2.80;1.67;;;;;;;;;;5028618;28;20030;-65
2022/07/01 11:30:27;;;;;;;6.35;1.63;;;;;;;;;;5013365;28;20356;-68
2022/07/01 11:32:55;;;;;;;2.97;1.55;;;;;;;;;;5024985;28;20492;-64
2022/07/01 11:41:02;;;;;;;4.70;1.50;;;;;;;;;;5019980;28;20136;-64
2022/07/01 11:43:31;;;;;;;5.38;1.58;;;;;;;;;;5025988;28;20164;-67
2022/07/01 11:46:00;;;;;;;2.85;1.52;;;;;;;;;;4997672;28;20513;-67
2022/07/01 11:48:36;;;;;;;5.30;1.70;;;;;;;;;;5032729;28;20053;-66
2022/07/01 11:51:12;;;;;;;4.07;1.63;;;;;;;;;;5031163;28;20052;-66
2022/07/01 11:53:40;;;;;;;4.32;1.65;;;;;;;;;;5033139;28;20095;-66
2022/07/01 11:56:06;;;;;;;2.70;1.60;;;;;;;;;;5030007;28;20025;-62
2022/07/01 11:58:42;;;;;;;3.70;1.60;;;;;;;;;;5018024;28;20114;-65
2022/07/01 12:01:08;;;;;;;4.53;1.85;;;;;;;;;;5011368;28;20034;-66
2022/07/01 12:03:34;;;;;;;3.63;1.42;;;;;;;;;;5020475;28;20040;-65
2022/07/01 12:05:59;;;;;;;4.53;1.80;;;;;;;;;;5033267;28;20025;-66
2022/07/01 12:08:25;;;;;;;2.80;1.63;;;;;;;;;;5029836;28;20474;-64
2022/07/01 12:10:50;;;;;;;3.90;1.70;;;;;;;;;;5032918;28;20037;-65
2022/07/01 12:13:26;;;;;;;2.08;1.70;;;;;;;;;;5029069;28;20466;-65
2022/07/01 12:15:52;;;;;;;4.65;1.70;;;;;;;;;;5014968;28;20124;-66
2022/07/01 12:18:19;;;;;;;3.20;1.80;;;;;;;;;;5017800;28;20036;-62
2022/07/01 12:20:49;;;;;;;6.55;2.00;;;;;;;;;;5032813;28;20025;-63
2022/07/01 12:23:15;;;;;;;3.03;1.48;;;;;;;;;;5028481;28;20041;-62
2022/07/01 12:25:47;;;;;;;2.50;1.60;;;;;;;;;;5032739;28;20450;-63
2022/07/01 12:28:25;;;;;;;4.97;1.80;;;;;;;;;;5029144;28;20025;-62
2022/07/01 12:31:02;;;;;;;6.57;1.55;;;;;;;;;;5028005;28;20383;-62
2022/07/01 12:33:27;;;;;;;3.25;1.58;;;;;;;;;;5016994;28;20111;-63
2022/07/01 12:35:54;;;;;;;3.55;1.67;;;;;;;;;;5028247;28;20041;-62
2022/07/01 12:38:19;;;;;;;2.95;1.63;;;;;;;;;;5027606;28;20083;-62
2022/07/01 12:40:45;;;;;;;3.75;1.70;;;;;;;;;;5028046;28;20033;-63
2022/07/01 12:43:29;;;;;;;4.53;1.80;;;;;;;;;;5012965;28;20483;-62
2022/07/01 12:45:58;;;;;;;7.05;1.83;;;;;;;;;;5022067;28;20454;-62
2022/07/01 12:48:23;;;;;;;4.60;1.90;;;;;;;;;;5011853;28;20050;-62
2022/07/01 12:50:53;;;;;;;4.55;1.80;;;;;;;;;;5018480;28;20033;-62
2022/07/01 12:53:20;;;;;;;3.70;1.80;;;;;;;;;;5031449;28;20486;-63
2022/07/01 12:55:51;;;;;;;3.13;1.63;;;;;;;;;;5031533;28;20458;-63
2022/07/01 12:58:18;;;;;;;4.13;1.67;;;;;;;;;;5018251;28;20021;-62
2022/07/01 13:00:49;;;;;;;13.25;1.90;;;;;;;;;;5027137;28;20100;-62
2022/07/01 13:03:19;;;;;;;6.00;1.83;;;;;;;;;;5032967;28;20037;-62
2022/07/01 13:05:45;;;;;;;4.03;1.58;;;;;;;;;;5032141;28;20040;-62
2022/07/01 13:08:11;;;;;;;4.60;1.58;;;;;;;;;;5030774;28;20033;-62
2022/07/01 13:10:37;;;;;;;4.72;1.40;;;;;;;;;;5029257;28;20058;-63
2022/07/01 13:13:03;;;;;;;2.40;1.40;;;;;;;;;;5030432;28;20123;-63
2022/07/01 13:15:29;;;;;;;4.25;1.50;;;;;;;;;;5027102;28;20109;-62
2022/07/01 13:17:55;;;;;;;3.10;1.50;;;;;;;;;;5030987;28;20112;-62
2022/07/01 13:20:20;;;;;;;3.47;1.70;;;;;;;;;;5029654;28;20082;-62
2022/07/01 13:22:46;;;;;;;3.85;1.60;;;;;;;;;;5031008;28;20067;-62
2022/07/01 13:25:13;;;;;;;6.28;1.70;;;;;;;;;;5022963;28;20069;-62
2022/07/01 13:27:38;;;;;;;2.42;1.35;;;;;;;;;;5031503;28;20037;-62
2022/07/01 13:30:06;;;;;;;2.10;1.25;;;;;;;;;;5029758;28;20087;-63
2022/07/01 13:32:31;;;;;;;2.20;1.17;;;;;;;;;;5031060;28;20143;-62
2022/07/01 13:34:57;;;;;;;1.45;1.10;;;;;;;;;;5028106;28;20029;-63
2022/07/01 13:37:22;;;;;;;1.55;1.20;;;;;;;;;;5013404;28;20451;-63
2022/07/01 13:39:48;;;;;;;2.97;1.27;;;;;;;;;;5029796;28;20067;-62
2022/07/01 13:42:13;;;;;;;3.03;1.15;;;;;;;;;;5031500;28;20348;-63
2022/07/01 13:44:39;;;;;;;2.97;1.40;;;;;;;;;;5028872;28;20037;-63
2022/07/01 13:47:09;;;;;;;5.20;1.60;;;;;;;;;;5031222;28;20036;-63
2022/07/01 13:49:37;;;;;;;2.42;1.33;;;;;;;;;;5029522;28;20041;-63
2022/07/01 13:52:03;;;;;;;3.25;1.40;;;;;;;;;;5031587;28;20056;-63
2022/07/01 13:54:29;;;;;;;5.05;1.77;;;;;;;;;;5028143;28;20107;-63
2022/07/01 13:56:54;;;;;;;3.38;1.40;;;;;;;;;;5035046;28;20041;-63
2022/07/01 13:59:20;;;;;;;5.20;1.45;;;;;;;;;;5033236;28;20083;-63
2022/07/01 14:01:46;;;;;;;5.07;1.17;;;;;;;;;;5035535;28;20029;-63
2022/07/01 14:04:12;;;;;;;3.25;1.20;;;;;;;;;;5031962;28;20112;-63
2022/07/01 14:06:37;;;;;;;4.10;1.30;;;;;;;;;;5034684;28;20108;-63
2022/07/01 14:09:03;;;;;;;2.53;1.10;;;;;;;;;;5034876;28;20021;-63
2022/07/01 14:11:28;;;;;;;4.07;1.20;;;;;;;;;;5034548;28;20037;-63
2022/07/01 14:13:54;;;;;;;4.35;1.10;;;;;;;;;;5023174;28;20482;-63
2022/07/01 14:16:19;;;;;;;2.88;1.10;;;;;;;;;;5026372;28;20030;-63
2022/07/01 14:18:44;;;;;;;2.58;1.20;;;;;;;;;;5032400;28;20441;-63
2022/07/01 14:21:10;;;;;;;3.90;1.20;;;;;;;;;;5035328;28;20107;-63
2022/07/01 14:23:35;;;;;;;4.13;1.50;;;;;;;;;;5029960;28;20132;-63
2022/07/01 14:26:01;;;;;;;3.60;1.17;;;;;;;;;;5035262;28;20459;-64
2022/07/01 14:28:26;;;;;;;2.35;1.20;;;;;;;;;;5025728;28;20494;-63
2022/07/01 14:30:54;;;;;;;3.10;1.10;;;;;;;;;;5015464;28;20038;-63
2022/07/01 14:33:20;;;;;;;2.92;1.10;;;;;;;;;;5016539;28;20042;-63
2022/07/01 14:35:45;;;;;;;3.33;1.30;;;;;;;;;;5030390;28;20087;-63
2022/07/01 14:38:11;;;;;;;2.72;1.23;;;;;;;;;;5035022;28;20025;-63
2022/07/01 14:40:37;;;;;;;2.67;1.00;;;;;;;;;;5033674;28;20824;-63
2022/07/01 14:43:03;;;;;;;3.13;1.15;;;;;;;;;;5030676;28;20025;-63
2022/07/01 14:45:28;;;;;;;5.20;1.23;;;;;;;;;;5033930;28;20041;-63